createdAt,value
2019-04-03T00:00:30.430Z,42.48
2019-04-03T00:01:09.430Z,41.62
2019-04-03T00:02:09.416Z,43.53
2019-04-03T00:03:09.409Z,45.82
2019-04-03T00:04:09.408Z,46.58
2019-04-03T00:05:09.399Z,45.53
2019-04-03T00:06:30.407Z,44.77
2019-04-03T00:07:09.390Z,43.05
2019-04-03T00:08:09.408Z,42.00
2019-04-03T00:09:09.381Z,41.52
2019-04-03T00:10:09.436Z,40.57
2019-04-03T00:11:09.690Z,39.71
2019-04-03T00:12:30.371Z,39.42
2019-04-03T00:13:11.122Z,39.61
2019-04-03T00:14:12.192Z,41.14
2019-04-03T00:15:09.357Z,40.66
2019-04-03T00:16:09.352Z,44.10
2019-04-03T00:17:09.341Z,42.48
2019-04-03T00:18:30.496Z,44.29
2019-04-03T00:19:09.337Z,43.62
2019-04-03T00:20:09.322Z,44.58
2019-04-03T00:21:09.353Z,46.48
2019-04-03T00:22:09.309Z,47.25
2019-04-03T00:23:09.305Z,47.34
2019-04-03T00:24:30.309Z,47.25
2019-04-03T00:25:09.295Z,47.44
2019-04-03T00:26:09.288Z,48.39
2019-04-03T00:27:09.283Z,46.30
2019-04-03T00:28:09.277Z,47.06
2019-04-03T00:29:09.274Z,48.30
2019-04-03T00:30:30.296Z,47.44
2019-04-03T00:31:09.264Z,47.63
2019-04-03T00:32:09.264Z,51.74
2019-04-03T00:33:09.252Z,51.64
2019-04-03T00:34:09.248Z,50.02
2019-04-03T00:35:09.243Z,51.17
2019-04-03T00:36:30.244Z,50.59
2019-04-03T00:37:09.283Z,48.68
2019-04-03T00:38:09.282Z,48.68
2019-04-03T00:39:09.228Z,50.69
2019-04-03T00:40:09.225Z,54.22
2019-04-03T00:41:09.213Z,55.27
2019-04-03T00:42:30.250Z,54.60
2019-04-03T00:43:09.298Z,53.55
2019-04-03T00:44:09.196Z,51.93
2019-04-03T00:45:09.198Z,50.59
2019-04-03T00:46:09.186Z,50.78
2019-04-03T00:47:09.181Z,50.49
2019-04-03T00:48:30.183Z,51.74
2019-04-03T00:49:09.172Z,50.98
2019-04-03T00:50:09.190Z,50.69
2019-04-03T00:51:09.160Z,50.69
2019-04-03T00:52:09.158Z,52.59
2019-04-03T00:53:09.149Z,52.40
2019-04-03T00:54:31.197Z,52.69
2019-04-03T00:55:09.138Z,51.54
2019-04-03T00:56:09.133Z,51.45
2019-04-03T00:57:09.130Z,49.83
2019-04-03T00:58:09.216Z,50.49
2019-04-03T00:59:09.118Z,49.44
2019-04-03T01:00:30.124Z,51.54
2019-04-03T01:01:09.223Z,51.35
2019-04-03T01:02:09.102Z,48.97
2019-04-03T01:03:09.264Z,50.12
2019-04-03T01:04:09.092Z,49.73
2019-04-03T01:05:09.085Z,48.59
2019-04-03T01:06:30.183Z,49.44
2019-04-03T01:07:09.079Z,50.98
2019-04-03T01:08:09.072Z,51.93
2019-04-03T01:09:09.066Z,50.21
2019-04-03T01:10:09.065Z,49.93
2019-04-03T01:11:09.078Z,48.02
2019-04-03T01:12:31.233Z,46.68
2019-04-03T01:13:09.086Z,46.11
2019-04-03T01:14:09.039Z,47.25
2019-04-03T01:15:09.070Z,48.59
2019-04-03T01:16:09.027Z,48.11
2019-04-03T01:17:09.021Z,47.06
2019-04-03T01:18:30.032Z,46.77
2019-04-03T01:19:09.019Z,47.54
2019-04-03T01:20:09.018Z,49.16
2019-04-03T01:21:09.003Z,48.68
2019-04-03T01:22:09.003Z,49.64
2019-04-03T01:23:08.992Z,49.35
2019-04-03T01:24:29.993Z,48.68
2019-04-03T01:25:09.443Z,48.21
2019-04-03T01:26:10.213Z,48.78
2019-04-03T01:27:11.150Z,51.26
2019-04-03T01:28:09.787Z,51.93
2019-04-03T01:29:08.960Z,52.40
2019-04-03T01:30:29.965Z,51.35
2019-04-03T01:31:09.007Z,52.50
2019-04-03T01:32:09.066Z,52.31
2019-04-03T01:33:09.027Z,52.59
2019-04-03T01:34:08.938Z,52.69
2019-04-03T01:35:09.437Z,52.03
2019-04-03T01:36:29.932Z,51.54
2019-04-03T01:37:08.962Z,50.69
2019-04-03T01:38:08.915Z,50.40
2019-04-03T01:39:08.908Z,50.49
2019-04-03T01:40:08.903Z,49.64
2019-04-03T01:41:08.898Z,49.35
2019-04-03T01:42:29.898Z,49.26
2019-04-03T01:43:08.888Z,48.39
2019-04-03T01:44:08.881Z,48.21
2019-04-03T01:45:08.879Z,47.99
2019-04-03T01:46:08.873Z,48.21
2019-04-03T01:47:08.868Z,48.08
2019-04-03T01:48:29.871Z,47.34
2019-04-03T01:49:08.853Z,47.44
2019-04-03T01:50:08.852Z,48.30
2019-04-03T01:51:08.847Z,48.21
2019-04-03T01:52:08.838Z,48.59
2019-04-03T01:53:08.835Z,48.30
2019-04-03T01:54:29.831Z,49.64
2019-04-03T01:55:08.823Z,49.33
2019-04-03T01:56:08.817Z,49.73
2019-04-03T01:57:08.837Z,48.75
2019-04-03T01:58:08.818Z,48.68
2019-04-03T01:59:08.811Z,48.18
2019-04-03T02:00:29.806Z,47.61
2019-04-03T02:01:08.925Z,48.18
2019-04-03T02:02:09.099Z,48.47
2019-04-03T02:03:10.295Z,48.08
2019-04-03T02:04:08.793Z,48.47
2019-04-03T02:05:08.876Z,48.28
2019-04-03T02:06:29.770Z,49.73
2019-04-03T02:07:08.762Z,50.09
2019-04-03T02:08:08.764Z,49.64
2019-04-03T02:09:08.930Z,50.47
2019-04-03T02:10:08.852Z,50.67
2019-04-03T02:11:08.743Z,49.52
2019-04-03T02:12:29.753Z,49.62
2019-04-03T02:13:08.733Z,51.14
2019-04-03T02:14:09.069Z,51.43
2019-04-03T02:15:08.718Z,51.43
2019-04-03T02:16:08.712Z,51.43
2019-04-03T02:17:08.706Z,51.23
2019-04-03T02:18:29.710Z,50.76
2019-04-03T02:19:08.701Z,52.09
2019-04-03T02:20:08.688Z,52.48
2019-04-03T02:21:08.685Z,52.95
2019-04-03T02:22:08.725Z,54.00
2019-04-03T02:23:08.681Z,52.95
2019-04-03T02:24:31.452Z,52.76
2019-04-03T02:25:08.663Z,52.57
2019-04-03T02:26:08.661Z,53.62
2019-04-03T02:27:08.671Z,54.67
2019-04-03T02:28:08.670Z,54.77
2019-04-03T02:29:09.225Z,54.29
2019-04-03T02:30:29.642Z,54.48
2019-04-03T02:31:08.631Z,54.19
2019-04-03T02:32:08.636Z,52.67
2019-04-03T02:33:08.619Z,53.14
2019-04-03T02:34:08.737Z,52.95
2019-04-03T02:35:08.627Z,52.86
2019-04-03T02:36:29.622Z,53.14
2019-04-03T02:37:08.723Z,52.28
2019-04-03T02:38:08.596Z,52.19
2019-04-03T02:39:08.602Z,52.67
2019-04-03T02:40:08.614Z,53.05
2019-04-03T02:41:08.809Z,52.86
2019-04-03T02:42:29.587Z,52.48
2019-04-03T02:43:08.570Z,52.67
2019-04-03T02:44:08.593Z,52.76
2019-04-03T02:45:08.558Z,52.28
2019-04-03T02:46:08.551Z,52.48
2019-04-03T02:47:08.589Z,52.19
2019-04-03T02:48:29.546Z,51.62
2019-04-03T02:49:10.414Z,51.81
2019-04-03T02:50:08.529Z,52.48
2019-04-03T02:51:08.537Z,52.38
2019-04-03T02:52:08.531Z,53.53
2019-04-03T02:53:08.532Z,53.72
2019-04-03T02:54:29.793Z,53.72
2019-04-03T02:55:09.271Z,53.81
2019-04-03T02:56:11.870Z,53.62
2019-04-03T02:57:08.489Z,54.38
2019-04-03T02:58:08.490Z,54.38
2019-04-03T02:59:08.744Z,54.29
2019-04-03T03:00:33.067Z,54.77
2019-04-03T03:01:08.612Z,56.20
2019-04-03T03:02:11.394Z,55.53
2019-04-03T03:03:08.497Z,56.77
2019-04-03T03:04:08.512Z,56.48
2019-04-03T03:05:08.460Z,56.48
2019-04-03T03:06:31.518Z,56.58
2019-04-03T03:07:08.438Z,56.67
2019-04-03T03:08:09.524Z,55.72
2019-04-03T03:09:08.610Z,56.67
2019-04-03T03:10:08.443Z,56.20
2019-04-03T03:11:08.417Z,55.72
2019-04-03T03:12:29.413Z,55.91
2019-04-03T03:13:08.405Z,55.82
2019-04-03T03:14:08.414Z,55.72
2019-04-03T03:15:10.953Z,57.24
2019-04-03T03:16:08.549Z,57.92
2019-04-03T03:17:08.385Z,57.53
2019-04-03T03:19:41.585Z,57.63
2019-04-03T03:21:55.223Z,57.82
2019-04-03T03:24:08.944Z,57.06
2019-04-03T03:26:22.717Z,56.96
2019-04-03T03:28:36.403Z,55.91
2019-04-03T03:30:57.792Z,54.38
2019-04-03T03:33:24.228Z,54.29
2019-04-03T03:35:26.574Z,53.24
2019-04-03T03:37:34.395Z,51.71
2019-04-03T03:39:45.048Z,50.83
2019-04-03T03:41:59.236Z,49.97
2019-04-03T03:44:12.641Z,50.16
2019-04-03T03:46:28.214Z,49.78
2019-04-03T03:47:26.175Z,49.78
2019-04-03T03:49:20.659Z,48.83
2019-04-03T03:50:24.310Z,49.40
2019-04-03T03:52:14.904Z,50.35
2019-04-03T03:53:14.898Z,49.59
2019-04-03T03:55:09.277Z,49.21
2019-04-03T03:56:09.617Z,49.30
2019-04-03T03:58:03.907Z,50.07
2019-04-03T03:59:03.636Z,49.78
2019-04-03T04:01:00.287Z,49.78
2019-04-03T04:01:58.196Z,49.59
2019-04-03T04:03:52.378Z,49.49
2019-04-03T04:04:52.464Z,49.59
2019-04-03T04:06:46.841Z,49.59
2019-04-03T04:07:46.701Z,49.21
2019-04-03T04:09:41.085Z,50.35
2019-04-03T04:10:41.131Z,50.45
2019-04-03T04:12:39.750Z,50.35
2019-04-03T04:13:35.872Z,50.07
2019-04-03T04:15:31.086Z,51.21
2019-04-03T04:16:29.786Z,52.26
2019-04-03T04:18:24.957Z,51.31
2019-04-03T04:19:24.122Z,51.31
2019-04-03T04:21:18.507Z,52.45
2019-04-03T04:22:19.098Z,52.36
2019-04-03T04:24:12.972Z,51.97
2019-04-03T04:25:13.107Z,51.50
2019-04-03T04:27:07.435Z,51.50
2019-04-03T04:28:09.213Z,51.59
2019-04-03T04:30:01.823Z,52.36
2019-04-03T04:31:01.786Z,52.45
2019-04-03T04:32:55.932Z,52.76
2019-04-03T04:33:56.095Z,52.92
2019-04-03T04:35:52.421Z,53.78
2019-04-03T04:36:50.283Z,53.41
2019-04-03T04:38:44.653Z,53.62
2019-04-03T04:39:44.645Z,53.33
2019-04-03T04:41:39.234Z,52.67
2019-04-03T04:42:39.005Z,53.69
2019-04-03T04:44:33.463Z,54.19
2019-04-03T04:45:33.880Z,55.12
2019-04-03T04:47:27.905Z,54.55
2019-04-03T04:48:27.727Z,54.55
2019-04-03T04:50:24.244Z,54.55
2019-04-03T04:51:22.087Z,54.36
2019-04-03T04:53:16.473Z,54.64
2019-04-03T04:54:16.437Z,54.26
2019-04-03T04:56:10.819Z,52.92
2019-04-03T04:57:10.793Z,53.12
2019-04-03T04:59:05.192Z,53.41
2019-04-03T05:00:05.342Z,53.02
2019-04-03T05:01:59.523Z,52.92
2019-04-03T05:03:01.008Z,53.97
2019-04-03T05:04:55.807Z,53.69
2019-04-03T05:05:53.865Z,55.12
2019-04-03T05:07:48.231Z,54.74
2019-04-03T05:08:48.225Z,55.21
2019-04-03T05:10:42.789Z,54.45
2019-04-03T05:11:42.590Z,54.55
2019-04-03T05:13:36.947Z,54.45
2019-04-03T05:14:36.937Z,54.93
2019-04-03T05:16:31.335Z,55.31
2019-04-03T05:17:31.291Z,55.02
2019-04-03T05:19:25.669Z,55.69
2019-04-03T05:20:25.647Z,56.36
2019-04-03T05:22:20.062Z,56.29
2019-04-03T05:23:20.005Z,56.29
2019-04-03T05:25:14.596Z,56.77
2019-04-03T05:26:14.457Z,56.58
2019-04-03T05:28:08.767Z,56.77
2019-04-03T05:29:08.729Z,57.72
2019-04-03T05:31:03.287Z,57.34
2019-04-03T05:32:03.124Z,58.11
2019-04-03T05:33:57.592Z,57.72
2019-04-03T05:34:57.433Z,56.67
2019-04-03T05:36:51.795Z,58.26
2019-04-03T05:37:51.786Z,57.15
2019-04-03T05:39:46.328Z,56.87
2019-04-03T05:40:46.165Z,57.15
2019-04-03T05:42:40.626Z,56.87
2019-04-03T05:43:40.549Z,59.06
2019-04-03T05:45:35.625Z,57.89
2019-04-03T05:46:36.515Z,58.29
2019-04-03T05:48:29.266Z,59.06
2019-04-03T05:49:29.316Z,58.68
2019-04-03T05:51:29.766Z,60.11
2019-04-03T05:52:28.428Z,59.53
2019-04-03T05:54:22.811Z,59.92
2019-04-03T05:55:22.841Z,60.58
2019-04-03T05:57:17.334Z,61.63
2019-04-03T05:58:17.354Z,60.87
2019-04-03T06:00:11.520Z,60.21
2019-04-03T06:01:11.889Z,59.92
2019-04-03T06:03:05.910Z,58.29
2019-04-03T06:04:05.870Z,58.39
2019-04-03T06:06:00.234Z,58.29
2019-04-03T06:07:00.231Z,58.77
2019-04-03T06:08:56.474Z,60.21
2019-04-03T06:09:58.282Z,60.21
2019-04-03T06:11:51.812Z,60.49
2019-04-03T06:12:49.195Z,59.73
2019-04-03T06:14:43.493Z,59.73
2019-04-03T06:15:43.302Z,59.82
2019-04-03T06:17:37.905Z,60.49
2019-04-03T06:18:37.660Z,61.92
2019-04-03T06:20:32.032Z,61.73
2019-04-03T06:21:32.028Z,62.88
2019-04-03T06:23:26.405Z,61.83
2019-04-03T06:24:26.374Z,62.59
2019-04-03T06:26:20.728Z,62.49
2019-04-03T06:27:20.725Z,62.40
2019-04-03T06:29:15.170Z,62.59
2019-04-03T06:30:15.204Z,62.02
2019-04-03T06:32:13.984Z,62.88
2019-04-03T06:33:13.975Z,62.68
2019-04-03T06:35:08.658Z,63.16
2019-04-03T06:36:08.554Z,63.45
2019-04-03T06:38:02.813Z,63.92
2019-04-03T06:39:02.736Z,65.64
2019-04-03T06:40:57.210Z,64.40
2019-04-03T06:41:57.111Z,65.74
2019-04-03T06:43:54.072Z,65.26
2019-04-03T06:44:53.856Z,64.12
2019-04-03T06:46:45.957Z,65.10
2019-04-03T06:47:45.822Z,66.88
2019-04-03T06:49:41.055Z,65.20
2019-04-03T06:50:40.216Z,66.69
2019-04-03T06:52:34.602Z,66.82
2019-04-03T06:53:34.778Z,67.40
2019-04-03T06:55:29.033Z,68.16
2019-04-03T06:56:28.922Z,66.25
2019-04-03T06:58:23.334Z,68.35
2019-04-03T06:59:23.285Z,69.21
2019-04-03T07:01:18.079Z,68.73
2019-04-03T07:02:18.165Z,69.68
2019-04-03T07:04:12.399Z,70.54
2019-04-03T07:05:12.014Z,69.68
2019-04-03T07:07:06.362Z,70.26
2019-04-03T07:08:06.442Z,71.69
2019-04-03T07:10:02.378Z,72.07
2019-04-03T07:11:00.751Z,73.03
2019-04-03T07:12:55.110Z,73.41
2019-04-03T07:13:55.125Z,73.03
2019-04-03T07:15:49.557Z,72.45
2019-04-03T07:16:49.454Z,73.50
2019-04-03T07:18:43.831Z,75.13
2019-04-03T07:19:43.821Z,76.12
2019-04-03T07:21:38.218Z,77.55
2019-04-03T07:22:38.178Z,75.26
2019-04-03T07:24:32.625Z,74.98
2019-04-03T07:25:33.936Z,75.45
2019-04-03T07:27:26.960Z,77.61
2019-04-03T07:28:26.902Z,77.42
2019-04-03T07:30:21.774Z,77.45
2019-04-03T07:31:23.291Z,76.98
2019-04-03T07:33:15.667Z,77.17
2019-04-03T07:34:15.626Z,78.22
2019-04-03T07:36:11.562Z,79.17
2019-04-03T07:37:10.009Z,77.94
2019-04-03T07:39:04.397Z,78.41
2019-04-03T07:40:04.498Z,78.13
2019-04-03T07:41:58.737Z,78.60
2019-04-03T07:42:58.725Z,78.41
2019-04-03T07:44:53.130Z,77.55
2019-04-03T07:45:53.189Z,77.17
2019-04-03T07:47:47.539Z,75.74
2019-04-03T07:48:47.459Z,74.88
2019-04-03T07:50:42.306Z,76.40
2019-04-03T07:51:43.289Z,76.12
2019-04-03T07:53:36.179Z,76.03
2019-04-03T07:54:36.180Z,76.60
2019-04-03T07:56:30.613Z,76.12
2019-04-03T07:57:30.542Z,76.35
2019-04-03T07:58:31.886Z,78.07
2019-04-03T07:59:32.075Z,77.69
2019-04-03T08:00:31.078Z,79.22
2019-04-03T08:01:30.901Z,79.41
2019-04-03T08:02:33.483Z,79.88
2019-04-03T08:03:30.515Z,80.36
2019-04-03T08:04:30.516Z,82.65
2019-04-03T08:05:31.589Z,84.19
2019-04-03T08:06:30.502Z,84.19
2019-04-03T08:07:30.498Z,85.24
2019-04-03T08:08:30.535Z,84.66
2019-04-03T08:09:30.543Z,85.24
2019-04-03T08:10:30.660Z,86.19
2019-04-03T08:11:30.838Z,86.38
2019-04-03T08:12:30.483Z,85.81
2019-04-03T08:13:30.478Z,84.76
2019-04-03T08:14:30.469Z,85.62
2019-04-03T08:15:30.846Z,86.33
2019-04-03T08:16:30.722Z,86.04
2019-04-03T08:17:30.454Z,85.38
2019-04-03T08:18:30.451Z,86.33
2019-04-03T08:19:30.450Z,86.23
2019-04-03T08:20:31.471Z,86.23
2019-04-03T08:21:30.979Z,85.28
2019-04-03T08:22:32.615Z,85.28
2019-04-03T08:23:30.478Z,84.99
2019-04-03T08:24:30.432Z,86.43
2019-04-03T08:25:30.430Z,86.52
2019-04-03T08:26:30.421Z,86.90
2019-04-03T08:27:30.415Z,86.71
2019-04-03T08:28:30.820Z,87.19
2019-04-03T08:29:32.683Z,84.61
2019-04-03T08:30:30.565Z,85.57
2019-04-03T08:31:30.399Z,85.66
2019-04-03T08:32:30.391Z,85.66
2019-04-03T08:33:32.817Z,86.52
2019-04-03T08:34:31.967Z,85.85
2019-04-03T08:35:30.384Z,85.09
2019-04-03T08:36:30.389Z,85.66
2019-04-03T08:37:32.275Z,85.66
2019-04-03T08:38:30.704Z,84.23
2019-04-03T08:39:30.737Z,85.47
2019-04-03T08:40:31.196Z,85.18
2019-04-03T08:41:30.369Z,85.18
2019-04-03T08:42:32.395Z,83.46
2019-04-03T08:43:32.669Z,85.28
2019-04-03T08:44:30.477Z,83.08
2019-04-03T08:45:30.346Z,82.89
2019-04-03T08:46:30.533Z,84.42
2019-04-03T08:47:30.334Z,82.98
2019-04-03T08:48:30.609Z,81.93
2019-04-03T08:49:30.503Z,83.75
2019-04-03T08:50:30.337Z,81.93
2019-04-03T08:51:30.362Z,81.36
2019-04-03T08:52:30.313Z,80.50
2019-04-03T08:53:30.316Z,81.65
2019-04-03T08:54:30.313Z,80.21
2019-04-03T08:55:30.307Z,80.69
2019-04-03T08:56:30.568Z,82.12
2019-04-03T08:57:30.538Z,81.93
2019-04-03T08:58:30.289Z,81.36
2019-04-03T08:59:30.568Z,82.89
2019-04-03T09:00:32.115Z,84.42
2019-04-03T09:01:30.326Z,84.32
2019-04-03T09:02:30.275Z,84.13
2019-04-03T09:03:30.278Z,85.66
2019-04-03T09:04:30.357Z,84.61
2019-04-03T09:05:30.623Z,84.42
2019-04-03T09:06:30.386Z,85.22
2019-04-03T09:07:30.255Z,86.08
2019-04-03T09:08:30.254Z,87.14
2019-04-03T09:09:30.575Z,87.04
2019-04-03T09:10:32.682Z,87.14
2019-04-03T09:11:30.245Z,86.76
2019-04-03T09:12:30.241Z,87.14
2019-04-03T09:13:30.293Z,86.66
2019-04-03T09:14:30.379Z,88.38
2019-04-03T09:15:30.365Z,87.23
2019-04-03T09:16:31.193Z,87.04
2019-04-03T09:17:30.223Z,87.04
2019-04-03T09:18:30.941Z,87.04
2019-04-03T09:19:30.320Z,86.37
2019-04-03T09:20:30.225Z,86.37
2019-04-03T09:21:30.209Z,87.43
2019-04-03T09:22:30.202Z,87.04
2019-04-03T09:23:30.434Z,86.85
2019-04-03T09:24:30.633Z,87.37
2019-04-03T09:25:31.598Z,87.66
2019-04-03T09:26:33.002Z,87.47
2019-04-03T09:27:30.204Z,88.71
2019-04-03T09:28:30.188Z,89.00
2019-04-03T09:29:30.199Z,89.00
2019-04-03T09:30:30.180Z,88.71
2019-04-03T09:31:30.177Z,89.29
2019-04-03T09:32:30.174Z,91.20
2019-04-03T09:33:30.348Z,89.67
2019-04-03T09:34:32.248Z,89.29
2019-04-03T09:35:32.176Z,91.25
2019-04-03T09:36:30.272Z,92.87
2019-04-03T09:37:30.166Z,95.07
2019-04-03T09:38:30.160Z,95.17
2019-04-03T09:39:30.184Z,94.40
2019-04-03T09:40:30.435Z,93.54
2019-04-03T09:41:30.186Z,93.16
2019-04-03T09:42:30.145Z,93.26
2019-04-03T09:43:30.143Z,95.31
2019-04-03T09:44:30.168Z,96.84
2019-04-03T09:45:30.195Z,96.56
2019-04-03T09:46:31.491Z,96.47
2019-04-03T09:47:31.688Z,98.96
2019-04-03T09:48:30.146Z,97.90
2019-04-03T09:49:30.195Z,98.57
2019-04-03T09:50:30.208Z,99.99
2019-04-03T09:51:30.521Z,99.82
2019-04-03T09:52:39.439Z,99.82
2019-04-03T09:53:30.118Z,99.91
2019-04-03T09:54:30.120Z,99.99
2019-04-03T09:55:35.777Z,99.99
2019-04-03T09:56:30.127Z,99.99
2019-04-03T09:57:31.296Z,99.99
2019-04-03T09:58:30.112Z,99.99
2019-04-03T09:59:30.108Z,99.99
2019-04-03T10:00:30.113Z,99.99
2019-04-03T10:01:30.112Z,99.99
2019-04-03T10:02:30.101Z,99.99
2019-04-03T10:03:31.263Z,99.99
2019-04-03T10:04:30.096Z,99.99
2019-04-03T10:05:30.095Z,99.99
2019-04-03T10:06:31.426Z,99.99
2019-04-03T10:07:31.875Z,99.99
2019-04-03T10:08:30.333Z,99.99
2019-04-03T10:09:30.350Z,99.99
2019-04-03T10:10:30.335Z,99.99
2019-04-03T10:11:30.138Z,99.99
2019-04-03T10:12:32.213Z,99.99
2019-04-03T10:13:30.239Z,99.99
2019-04-03T10:14:30.080Z,99.99
2019-04-03T10:15:31.219Z,99.99
2019-04-03T10:16:30.078Z,99.99
2019-04-03T10:17:30.076Z,99.99
2019-04-03T10:18:30.492Z,99.99
2019-04-03T10:19:30.229Z,99.99
2019-04-03T10:20:30.196Z,99.99
2019-04-03T10:21:32.859Z,99.99
2019-04-03T10:22:30.068Z,99.99
2019-04-03T10:23:30.063Z,99.99
2019-04-03T10:24:31.055Z,99.99
2019-04-03T10:25:30.062Z,99.99
2019-04-03T10:26:31.654Z,95.79
2019-04-03T10:27:30.272Z,90.42
2019-04-03T10:28:30.235Z,85.44
2019-04-03T10:29:30.059Z,77.48
2019-04-03T10:30:30.053Z,74.22
2019-04-03T10:31:30.349Z,74.31
2019-04-03T10:32:30.209Z,72.78
2019-04-03T10:33:31.568Z,71.72
2019-04-03T10:34:30.343Z,71.63
2019-04-03T10:35:30.053Z,68.66
2019-04-03T10:36:30.045Z,69.23
2019-04-03T10:37:30.046Z,69.36
2019-04-03T10:38:30.045Z,68.18
2019-04-03T10:39:30.187Z,68.12
2019-04-03T10:40:30.039Z,68.02
2019-04-03T10:41:30.054Z,66.39
2019-04-03T10:42:31.267Z,65.14
2019-04-03T10:43:30.415Z,65.05
2019-04-03T10:44:30.037Z,65.33
2019-04-03T10:45:30.034Z,65.72
2019-04-03T10:46:30.030Z,65.14
2019-04-03T10:47:40.054Z,63.60
2019-04-03T10:48:30.044Z,62.96
2019-04-03T10:49:32.055Z,64.02
2019-04-03T10:50:30.026Z,64.12
2019-04-03T10:51:31.705Z,63.54
2019-04-03T10:52:30.540Z,64.31
2019-04-03T10:53:30.024Z,64.79
2019-04-03T10:54:30.514Z,64.22
2019-04-03T10:55:30.421Z,64.89
2019-04-03T10:56:31.214Z,65.17
2019-04-03T10:57:31.763Z,65.08
2019-04-03T10:58:30.139Z,64.89
2019-04-03T10:59:30.020Z,64.59
2019-04-03T11:00:30.053Z,64.50
2019-04-03T11:01:30.018Z,63.73
2019-04-03T11:02:30.016Z,63.73
2019-04-03T11:03:30.016Z,63.64
2019-04-03T11:04:30.016Z,63.73
2019-04-03T11:05:30.018Z,63.45
2019-04-03T11:06:30.159Z,63.09
2019-04-03T11:07:30.014Z,62.99
2019-04-03T11:08:30.331Z,61.94
2019-04-03T11:09:30.071Z,61.75
2019-04-03T11:10:30.034Z,61.52
2019-04-03T11:11:30.524Z,61.81
2019-04-03T11:12:31.716Z,60.95
2019-04-03T11:13:30.134Z,61.14
2019-04-03T11:14:30.008Z,61.14
2019-04-03T11:15:30.349Z,61.43
2019-04-03T11:16:30.005Z,61.24
2019-04-03T11:17:30.043Z,61.11
2019-04-03T11:18:30.231Z,61.69
2019-04-03T11:19:30.098Z,62.45
2019-04-03T11:20:30.001Z,62.26
2019-04-03T11:21:30.004Z,62.07
2019-04-03T11:22:39.756Z,61.11
2019-04-03T11:23:38.792Z,60.92
2019-04-03T11:24:30.019Z,60.72
2019-04-03T11:25:29.999Z,61.78
2019-04-03T11:26:30.119Z,61.21
2019-04-03T11:27:42.188Z,60.99
2019-04-03T11:28:30.039Z,61.11
2019-04-03T11:29:30.020Z,61.08
2019-04-03T11:30:29.993Z,61.40
2019-04-03T11:31:33.077Z,61.78
2019-04-03T11:32:29.989Z,61.94
2019-04-03T11:33:29.990Z,60.72
2019-04-03T11:34:30.035Z,61.02
2019-04-03T11:35:30.528Z,61.49
2019-04-03T11:36:30.821Z,61.88
2019-04-03T11:37:31.922Z,61.98
2019-04-03T11:38:30.053Z,61.98
2019-04-03T11:39:30.035Z,61.78
2019-04-03T11:40:30.064Z,62.07
2019-04-03T11:41:29.975Z,61.59
2019-04-03T11:42:30.186Z,61.78
2019-04-03T11:43:31.529Z,61.59
2019-04-03T11:44:29.972Z,61.24
2019-04-03T11:45:29.974Z,61.11
2019-04-03T11:46:29.971Z,61.24
2019-04-03T11:47:30.115Z,60.53
2019-04-03T11:48:29.962Z,60.82
2019-04-03T11:49:30.165Z,61.24
2019-04-03T11:50:29.997Z,61.21
2019-04-03T11:51:30.255Z,60.53
2019-04-03T11:52:29.969Z,60.63
2019-04-03T11:53:30.660Z,61.30
2019-04-03T11:54:29.961Z,61.14
2019-04-03T11:55:29.980Z,60.72
2019-04-03T11:56:29.997Z,60.63
2019-04-03T11:57:29.958Z,60.53
2019-04-03T11:58:29.954Z,60.53
2019-04-03T11:59:29.955Z,60.72
2019-04-03T12:00:30.119Z,60.66
2019-04-03T12:01:29.952Z,60.92
2019-04-03T12:02:29.948Z,60.72
2019-04-03T12:03:29.949Z,60.72
2019-04-03T12:04:30.185Z,60.53
2019-04-03T12:05:29.945Z,60.63
2019-04-03T12:06:29.950Z,60.72
2019-04-03T12:07:29.946Z,60.35
2019-04-03T12:08:30.304Z,60.63
2019-04-03T12:09:31.668Z,60.63
2019-04-03T12:10:29.940Z,60.53
2019-04-03T12:11:29.939Z,60.66
2019-04-03T12:12:29.947Z,60.92
2019-04-03T12:13:29.946Z,60.57
2019-04-03T12:14:29.945Z,61.05
2019-04-03T12:15:30.147Z,60.66
2019-04-03T12:16:30.152Z,59.80
2019-04-03T12:17:30.618Z,60.38
2019-04-03T12:18:33.082Z,59.89
2019-04-03T12:19:29.936Z,59.89
2019-04-03T12:20:29.935Z,60.28
2019-04-03T12:21:30.177Z,59.61
2019-04-03T12:22:29.925Z,59.99
2019-04-03T12:23:30.159Z,59.89
2019-04-03T12:24:29.928Z,60.18
2019-04-03T12:25:29.924Z,59.99
2019-04-03T12:26:29.925Z,59.99
2019-04-03T12:27:29.926Z,59.80
2019-04-03T12:28:29.919Z,59.99
2019-04-03T12:29:29.920Z,60.18
2019-04-03T12:30:29.924Z,60.08
2019-04-03T12:31:29.919Z,59.80
2019-04-03T12:32:37.062Z,60.18
2019-04-03T12:33:30.003Z,59.99
2019-04-03T12:34:29.956Z,59.51
2019-04-03T12:35:29.915Z,59.22
2019-04-03T12:36:30.223Z,59.51
2019-04-03T12:37:30.141Z,59.64
2019-04-03T12:38:29.911Z,59.34
2019-04-03T12:39:29.915Z,60.11
2019-04-03T12:40:32.414Z,59.54
2019-04-03T12:41:29.913Z,59.83
2019-04-03T12:42:29.982Z,59.83
2019-04-03T12:43:29.943Z,60.02
2019-04-03T12:44:29.994Z,59.38
2019-04-03T12:45:30.298Z,59.47
2019-04-03T12:46:32.726Z,58.80
2019-04-03T12:47:30.364Z,58.13
2019-04-03T12:48:29.909Z,58.32
2019-04-03T12:49:30.087Z,58.32
2019-04-03T12:50:29.953Z,58.03
2019-04-03T12:51:31.562Z,58.32
2019-04-03T12:52:29.909Z,58.03
2019-04-03T12:53:30.279Z,58.22
2019-04-03T12:54:30.225Z,57.84
2019-04-03T12:55:30.245Z,58.32
2019-04-03T12:56:30.911Z,58.13
2019-04-03T12:57:32.144Z,58.51
2019-04-03T12:58:30.097Z,59.38
2019-04-03T12:59:30.273Z,60.05
2019-04-03T13:00:29.926Z,60.69
2019-04-03T13:01:29.966Z,61.46
2019-04-03T13:02:30.125Z,62.04
2019-04-03T13:03:30.039Z,62.13
2019-04-03T13:04:31.216Z,61.84
2019-04-03T13:05:29.903Z,62.61
2019-04-03T13:06:30.266Z,61.75
2019-04-03T13:07:30.548Z,61.55
2019-04-03T13:08:30.540Z,60.43
2019-04-03T13:09:29.905Z,60.72
2019-04-03T13:10:40.201Z,61.11
2019-04-03T13:11:32.666Z,60.43
2019-04-03T13:12:30.233Z,60.60
2019-04-03T13:13:30.352Z,60.88
2019-04-03T13:14:30.221Z,60.91
2019-04-03T13:15:29.900Z,61.30
2019-04-03T13:16:29.992Z,61.36
2019-04-03T13:17:30.283Z,61.65
2019-04-03T13:18:30.002Z,62.13
2019-04-03T13:19:29.898Z,62.81
2019-04-03T13:20:29.991Z,63.38
2019-04-03T13:21:29.899Z,63.67
2019-04-03T13:22:29.959Z,64.25
2019-04-03T13:23:29.899Z,64.82
2019-04-03T13:24:30.313Z,65.40
2019-04-03T13:25:29.982Z,65.59
2019-04-03T13:26:29.892Z,67.00
2019-04-03T13:27:31.759Z,67.67
2019-04-03T13:28:29.891Z,67.61
2019-04-03T13:29:29.894Z,67.41
2019-04-03T13:30:29.955Z,67.51
2019-04-03T13:31:29.897Z,67.51
2019-04-03T13:32:29.896Z,67.22
2019-04-03T13:33:29.893Z,66.93
2019-04-03T13:34:31.849Z,67.03
2019-04-03T13:35:29.896Z,66.93
2019-04-03T13:36:29.908Z,66.16
2019-04-03T13:37:29.890Z,66.16
2019-04-03T13:38:30.112Z,66.93
2019-04-03T13:39:30.925Z,67.61
2019-04-03T13:40:29.944Z,67.57
2019-04-03T13:41:30.126Z,67.96
2019-04-03T13:42:31.342Z,68.15
2019-04-03T13:43:29.895Z,68.53
2019-04-03T13:44:29.883Z,67.76
2019-04-03T13:45:31.070Z,66.80
2019-04-03T13:46:29.940Z,67.00
2019-04-03T13:47:29.886Z,67.61
2019-04-03T13:48:29.880Z,67.70
2019-04-03T13:49:30.849Z,67.61
2019-04-03T13:50:29.878Z,67.03
2019-04-03T13:51:29.879Z,66.90
2019-04-03T13:52:40.245Z,66.80
2019-04-03T13:53:29.877Z,67.00
2019-04-03T13:54:29.875Z,66.52
2019-04-03T13:55:33.759Z,66.90
2019-04-03T13:56:29.875Z,66.71
2019-04-03T13:57:29.874Z,65.78
2019-04-03T13:58:29.872Z,65.88
2019-04-03T13:59:29.871Z,65.88
2019-04-03T14:00:32.105Z,65.20
2019-04-03T14:01:30.050Z,64.92
2019-04-03T14:02:29.869Z,64.15
2019-04-03T14:03:29.893Z,63.86
2019-04-03T14:04:30.135Z,62.71
2019-04-03T14:05:32.862Z,62.71
2019-04-03T14:06:29.866Z,61.46
2019-04-03T14:07:31.501Z,60.78
2019-04-03T14:08:29.877Z,60.11
2019-04-03T14:09:29.865Z,60.11
2019-04-03T14:10:29.865Z,60.31
2019-04-03T14:11:30.897Z,59.92
2019-04-03T14:12:29.865Z,60.11
2019-04-03T14:13:29.863Z,59.73
2019-04-03T14:14:29.859Z,59.25
2019-04-03T14:15:29.983Z,58.67
2019-04-03T14:16:30.091Z,59.44
2019-04-03T14:17:29.859Z,59.25
2019-04-03T14:18:29.858Z,59.89
2019-04-03T14:19:41.836Z,59.99
2019-04-03T14:20:29.891Z,59.51
2019-04-03T14:21:29.855Z,60.57
2019-04-03T14:22:31.133Z,60.38
2019-04-03T14:23:29.852Z,60.47
2019-04-03T14:24:38.517Z,60.88
2019-04-03T14:25:36.162Z,60.69
2019-04-03T14:26:29.848Z,60.78